sensor_id;sensor_type;location;lat;lon;timestamp;P1;durP1;ratioP1;P2;durP2;ratioP2
27543;SDS011;17996;51.056;3.656;2022-11-11T00:01:05;47.88;;;28.88;;
27543;SDS011;17996;51.056;3.656;2022-11-11T00:03:34;45.22;;;28.85;;
27543;SDS011;17996;51.056;3.656;2022-11-11T00:06:03;50.53;;;28.52;;
27543;SDS011;17996;51.056;3.656;2022-11-11T00:08:30;51.10;;;30.20;;
27543;SDS011;17996;51.056;3.656;2022-11-11T00:11:06;48.50;;;30.33;;
27543;SDS011;17996;51.056;3.656;2022-11-11T00:13:34;55.28;;;31.10;;
27543;SDS011;17996;51.056;3.656;2022-11-11T00:16:03;55.60;;;30.83;;
27543;SDS011;17996;51.056;3.656;2022-11-11T00:18:49;48.50;;;30.27;;
27543;SDS011;17996;51.056;3.656;2022-11-11T00:21:33;50.40;;;30.92;;
27543;SDS011;17996;51.056;3.656;2022-11-11T00:24:27;50.80;;;30.80;;
27543;SDS011;17996;51.056;3.656;2022-11-11T00:27:13;44.65;;;28.20;;
27543;SDS011;17996;51.056;3.656;2022-11-11T00:29:39;46.00;;;29.08;;
27543;SDS011;17996;51.056;3.656;2022-11-11T00:32:06;50.75;;;27.70;;
27543;SDS011;17996;51.056;3.656;2022-11-11T00:34:50;43.55;;;29.30;;
27543;SDS011;17996;51.056;3.656;2022-11-11T00:37:35;45.47;;;28.83;;
27543;SDS011;17996;51.056;3.656;2022-11-11T00:40:01;48.25;;;29.67;;
27543;SDS011;17996;51.056;3.656;2022-11-11T00:42:27;47.97;;;27.85;;
27543;SDS011;17996;51.056;3.656;2022-11-11T00:44:53;42.05;;;28.95;;
27543;SDS011;17996;51.056;3.656;2022-11-11T00:47:19;49.67;;;28.63;;
27543;SDS011;17996;51.056;3.656;2022-11-11T00:50:04;46.67;;;28.33;;
27543;SDS011;17996;51.056;3.656;2022-11-11T00:52:52;49.05;;;27.65;;
27543;SDS011;17996;51.056;3.656;2022-11-11T00:55:18;50.00;;;28.08;;
27543;SDS011;17996;51.056;3.656;2022-11-11T00:57:43;44.63;;;25.73;;
27543;SDS011;17996;51.056;3.656;2022-11-11T01:00:09;50.97;;;27.05;;
27543;SDS011;17996;51.056;3.656;2022-11-11T01:02:35;44.17;;;28.02;;
27543;SDS011;17996;51.056;3.656;2022-11-11T01:05:01;42.35;;;25.13;;
27543;SDS011;17996;51.056;3.656;2022-11-11T01:07:27;45.03;;;25.83;;
27543;SDS011;17996;51.056;3.656;2022-11-11T01:09:52;42.97;;;26.25;;
27543;SDS011;17996;51.056;3.656;2022-11-11T01:12:18;54.08;;;26.45;;
27543;SDS011;17996;51.056;3.656;2022-11-11T01:14:44;46.35;;;26.50;;
27543;SDS011;17996;51.056;3.656;2022-11-11T01:17:09;39.95;;;26.08;;
27543;SDS011;17996;51.056;3.656;2022-11-11T01:19:35;47.55;;;26.90;;
27543;SDS011;17996;51.056;3.656;2022-11-11T01:22:01;40.55;;;25.25;;
27543;SDS011;17996;51.056;3.656;2022-11-11T01:24:26;46.13;;;26.17;;
27543;SDS011;17996;51.056;3.656;2022-11-11T01:26:52;44.40;;;24.65;;
27543;SDS011;17996;51.056;3.656;2022-11-11T01:29:17;41.67;;;26.10;;
27543;SDS011;17996;51.056;3.656;2022-11-11T01:31:43;42.58;;;24.35;;
27543;SDS011;17996;51.056;3.656;2022-11-11T01:34:09;41.30;;;23.63;;
27543;SDS011;17996;51.056;3.656;2022-11-11T01:36:35;37.15;;;22.80;;
27543;SDS011;17996;51.056;3.656;2022-11-11T01:39:01;47.85;;;24.60;;
27543;SDS011;17996;51.056;3.656;2022-11-11T01:41:28;43.28;;;23.63;;
27543;SDS011;17996;51.056;3.656;2022-11-11T01:49:45;40.05;;;22.10;;
27543;SDS011;17996;51.056;3.656;2022-11-11T01:54:51;35.83;;;22.45;;
27543;SDS011;17996;51.056;3.656;2022-11-11T01:57:36;33.53;;;21.20;;
27543;SDS011;17996;51.056;3.656;2022-11-11T02:00:08;33.17;;;19.50;;
27543;SDS011;17996;51.056;3.656;2022-11-11T02:02:37;37.42;;;22.00;;
27543;SDS011;17996;51.056;3.656;2022-11-11T02:05:13;35.92;;;19.77;;
27543;SDS011;17996;51.056;3.656;2022-11-11T02:08:00;34.00;;;20.10;;
27543;SDS011;17996;51.056;3.656;2022-11-11T02:10:30;35.80;;;21.40;;
27543;SDS011;17996;51.056;3.656;2022-11-11T02:12:57;35.88;;;19.70;;
27543;SDS011;17996;51.056;3.656;2022-11-11T02:15:42;32.88;;;19.75;;
27543;SDS011;17996;51.056;3.656;2022-11-11T02:18:09;32.55;;;19.63;;
27543;SDS011;17996;51.056;3.656;2022-11-11T02:20:39;36.40;;;21.00;;
27543;SDS011;17996;51.056;3.656;2022-11-11T02:23:10;33.30;;;19.15;;
27543;SDS011;17996;51.056;3.656;2022-11-11T02:25:46;33.97;;;20.25;;
27543;SDS011;17996;51.056;3.656;2022-11-11T02:28:14;30.60;;;18.70;;
27543;SDS011;17996;51.056;3.656;2022-11-11T02:30:41;35.85;;;20.20;;
27543;SDS011;17996;51.056;3.656;2022-11-11T02:33:07;36.45;;;19.90;;
27543;SDS011;17996;51.056;3.656;2022-11-11T02:35:34;35.03;;;20.63;;
27543;SDS011;17996;51.056;3.656;2022-11-11T02:38:03;33.88;;;20.13;;
27543;SDS011;17996;51.056;3.656;2022-11-11T02:40:37;35.15;;;19.63;;
27543;SDS011;17996;51.056;3.656;2022-11-11T02:43:28;29.33;;;18.42;;
27543;SDS011;17996;51.056;3.656;2022-11-11T02:45:58;36.03;;;19.35;;
27543;SDS011;17996;51.056;3.656;2022-11-11T02:48:24;27.05;;;17.35;;
27543;SDS011;17996;51.056;3.656;2022-11-11T02:50:51;33.08;;;18.95;;
27543;SDS011;17996;51.056;3.656;2022-11-11T02:53:17;29.90;;;17.80;;
27543;SDS011;17996;51.056;3.656;2022-11-11T02:55:43;35.70;;;18.95;;
27543;SDS011;17996;51.056;3.656;2022-11-11T02:58:08;32.47;;;18.45;;
27543;SDS011;17996;51.056;3.656;2022-11-11T03:00:35;30.83;;;18.75;;
27543;SDS011;17996;51.056;3.656;2022-11-11T03:03:00;29.23;;;18.25;;
27543;SDS011;17996;51.056;3.656;2022-11-11T03:05:26;33.13;;;18.20;;
27543;SDS011;17996;51.056;3.656;2022-11-11T03:07:51;33.88;;;17.55;;
27543;SDS011;17996;51.056;3.656;2022-11-11T03:10:17;34.38;;;17.95;;
27543;SDS011;17996;51.056;3.656;2022-11-11T03:12:43;29.23;;;17.88;;
27543;SDS011;17996;51.056;3.656;2022-11-11T03:15:08;29.48;;;18.02;;
27543;SDS011;17996;51.056;3.656;2022-11-11T03:17:34;34.10;;;18.52;;
27543;SDS011;17996;51.056;3.656;2022-11-11T03:20:09;32.60;;;18.65;;
27543;SDS011;17996;51.056;3.656;2022-11-11T03:23:06;34.85;;;19.40;;
27543;SDS011;17996;51.056;3.656;2022-11-11T03:25:32;29.33;;;19.77;;
27543;SDS011;17996;51.056;3.656;2022-11-11T03:30:30;30.80;;;20.23;;
27543;SDS011;17996;51.056;3.656;2022-11-11T03:32:57;31.10;;;18.52;;
27543;SDS011;17996;51.056;3.656;2022-11-11T03:35:26;34.60;;;19.90;;
27543;SDS011;17996;51.056;3.656;2022-11-11T03:37:52;36.58;;;19.35;;
27543;SDS011;17996;51.056;3.656;2022-11-11T03:40:36;23.27;;;17.67;;
27543;SDS011;17996;51.056;3.656;2022-11-11T03:43:02;36.97;;;20.17;;
27543;SDS011;17996;51.056;3.656;2022-11-11T03:45:27;33.13;;;20.23;;
27543;SDS011;17996;51.056;3.656;2022-11-11T03:47:53;30.92;;;19.00;;
27543;SDS011;17996;51.056;3.656;2022-11-11T03:50:19;29.35;;;18.17;;
27543;SDS011;17996;51.056;3.656;2022-11-11T03:52:45;32.40;;;19.25;;
27543;SDS011;17996;51.056;3.656;2022-11-11T03:55:11;40.85;;;21.65;;
27543;SDS011;17996;51.056;3.656;2022-11-11T03:57:39;28.90;;;20.25;;
27543;SDS011;17996;51.056;3.656;2022-11-11T04:00:08;34.20;;;21.90;;
27543;SDS011;17996;51.056;3.656;2022-11-11T04:02:39;34.50;;;21.52;;
27543;SDS011;17996;51.056;3.656;2022-11-11T04:05:23;32.97;;;22.65;;
27543;SDS011;17996;51.056;3.656;2022-11-11T04:08:14;34.97;;;23.27;;
27543;SDS011;17996;51.056;3.656;2022-11-11T04:11:11;37.58;;;23.95;;
27543;SDS011;17996;51.056;3.656;2022-11-11T04:13:39;37.95;;;23.35;;
27543;SDS011;17996;51.056;3.656;2022-11-11T04:16:25;43.05;;;23.73;;
27543;SDS011;17996;51.056;3.656;2022-11-11T04:18:51;45.85;;;24.50;;
27543;SDS011;17996;51.056;3.656;2022-11-11T04:21:35;35.53;;;23.70;;
27543;SDS011;17996;51.056;3.656;2022-11-11T04:24:13;38.40;;;23.75;;
27543;SDS011;17996;51.056;3.656;2022-11-11T04:26:59;35.70;;;21.88;;
27543;SDS011;17996;51.056;3.656;2022-11-11T04:29:26;37.50;;;22.55;;
27543;SDS011;17996;51.056;3.656;2022-11-11T04:31:56;38.30;;;21.88;;
27543;SDS011;17996;51.056;3.656;2022-11-11T04:34:42;41.00;;;23.33;;
27543;SDS011;17996;51.056;3.656;2022-11-11T04:37:15;33.40;;;21.27;;
27543;SDS011;17996;51.056;3.656;2022-11-11T04:39:42;35.40;;;23.05;;
27543;SDS011;17996;51.056;3.656;2022-11-11T04:42:26;31.27;;;22.60;;
27543;SDS011;17996;51.056;3.656;2022-11-11T04:44:52;41.40;;;23.27;;
27543;SDS011;17996;51.056;3.656;2022-11-11T04:47:36;36.35;;;23.63;;
27543;SDS011;17996;51.056;3.656;2022-11-11T04:50:03;35.97;;;23.92;;
27543;SDS011;17996;51.056;3.656;2022-11-11T04:52:29;39.88;;;24.00;;
27543;SDS011;17996;51.056;3.656;2022-11-11T04:54:56;39.63;;;23.98;;
27543;SDS011;17996;51.056;3.656;2022-11-11T04:58:01;50.13;;;25.55;;
27543;SDS011;17996;51.056;3.656;2022-11-11T05:00:27;39.72;;;24.27;;
27543;SDS011;17996;51.056;3.656;2022-11-11T05:02:53;38.75;;;25.45;;
27543;SDS011;17996;51.056;3.656;2022-11-11T05:05:38;37.88;;;23.90;;
27543;SDS011;17996;51.056;3.656;2022-11-11T05:08:22;37.40;;;25.63;;
27543;SDS011;17996;51.056;3.656;2022-11-11T05:11:06;37.97;;;26.50;;
27543;SDS011;17996;51.056;3.656;2022-11-11T05:13:32;40.17;;;25.88;;
27543;SDS011;17996;51.056;3.656;2022-11-11T05:16:17;39.80;;;25.40;;
27543;SDS011;17996;51.056;3.656;2022-11-11T05:21:50;38.65;;;25.85;;
27543;SDS011;17996;51.056;3.656;2022-11-11T05:24:19;46.40;;;27.75;;
27543;SDS011;17996;51.056;3.656;2022-11-11T05:27:03;41.33;;;27.33;;
27543;SDS011;17996;51.056;3.656;2022-11-11T05:29:29;42.38;;;27.38;;
27543;SDS011;17996;51.056;3.656;2022-11-11T05:31:54;46.35;;;30.00;;
27543;SDS011;17996;51.056;3.656;2022-11-11T05:34:20;39.92;;;28.65;;
27543;SDS011;17996;51.056;3.656;2022-11-11T05:36:46;42.00;;;30.17;;
27543;SDS011;17996;51.056;3.656;2022-11-11T05:39:11;44.42;;;29.77;;
27543;SDS011;17996;51.056;3.656;2022-11-11T05:41:37;52.13;;;29.85;;
27543;SDS011;17996;51.056;3.656;2022-11-11T05:44:02;45.22;;;28.73;;
27543;SDS011;17996;51.056;3.656;2022-11-11T05:46:28;50.40;;;29.98;;
27543;SDS011;17996;51.056;3.656;2022-11-11T05:48:54;40.83;;;28.58;;
27543;SDS011;17996;51.056;3.656;2022-11-11T05:51:38;43.03;;;30.40;;
27543;SDS011;17996;51.056;3.656;2022-11-11T05:54:03;54.95;;;33.70;;
27543;SDS011;17996;51.056;3.656;2022-11-11T05:56:29;46.78;;;30.98;;
27543;SDS011;17996;51.056;3.656;2022-11-11T05:58:55;50.53;;;31.90;;
27543;SDS011;17996;51.056;3.656;2022-11-11T06:01:20;49.97;;;32.97;;
27543;SDS011;17996;51.056;3.656;2022-11-11T06:03:46;50.72;;;31.20;;
27543;SDS011;17996;51.056;3.656;2022-11-11T06:06:12;55.25;;;34.40;;
27543;SDS011;17996;51.056;3.656;2022-11-11T06:08:38;46.10;;;30.90;;
27543;SDS011;17996;51.056;3.656;2022-11-11T06:11:04;58.72;;;32.65;;
27543;SDS011;17996;51.056;3.656;2022-11-11T06:13:29;47.63;;;32.00;;
27543;SDS011;17996;51.056;3.656;2022-11-11T06:15:55;39.72;;;28.60;;
27543;SDS011;17996;51.056;3.656;2022-11-11T06:18:22;42.05;;;28.73;;
27543;SDS011;17996;51.056;3.656;2022-11-11T06:20:54;45.95;;;28.38;;
27543;SDS011;17996;51.056;3.656;2022-11-11T06:23:20;43.20;;;27.63;;
27543;SDS011;17996;51.056;3.656;2022-11-11T06:25:47;47.78;;;28.17;;
27543;SDS011;17996;51.056;3.656;2022-11-11T06:28:32;40.17;;;28.60;;
27543;SDS011;17996;51.056;3.656;2022-11-11T06:30:58;43.15;;;28.52;;
27543;SDS011;17996;51.056;3.656;2022-11-11T06:33:24;48.03;;;29.58;;
27543;SDS011;17996;51.056;3.656;2022-11-11T06:35:49;40.70;;;28.60;;
27543;SDS011;17996;51.056;3.656;2022-11-11T06:38:15;53.05;;;29.30;;
27543;SDS011;17996;51.056;3.656;2022-11-11T06:40:41;46.80;;;29.25;;
27543;SDS011;17996;51.056;3.656;2022-11-11T06:43:08;41.40;;;28.80;;
27543;SDS011;17996;51.056;3.656;2022-11-11T06:45:34;43.05;;;28.25;;
27543;SDS011;17996;51.056;3.656;2022-11-11T06:48:00;45.10;;;28.00;;
27543;SDS011;17996;51.056;3.656;2022-11-11T06:50:30;44.63;;;27.42;;
27543;SDS011;17996;51.056;3.656;2022-11-11T06:53:02;39.40;;;26.45;;
27543;SDS011;17996;51.056;3.656;2022-11-11T06:55:29;38.90;;;27.02;;
27543;SDS011;17996;51.056;3.656;2022-11-11T06:57:54;40.55;;;26.48;;
27543;SDS011;17996;51.056;3.656;2022-11-11T07:00:20;40.80;;;26.33;;
27543;SDS011;17996;51.056;3.656;2022-11-11T07:02:45;34.20;;;24.73;;
27543;SDS011;17996;51.056;3.656;2022-11-11T07:05:11;40.28;;;25.98;;
27543;SDS011;17996;51.056;3.656;2022-11-11T07:07:37;36.38;;;23.33;;
27543;SDS011;17996;51.056;3.656;2022-11-11T07:10:03;34.05;;;23.23;;
27543;SDS011;17996;51.056;3.656;2022-11-11T07:12:31;35.55;;;22.45;;
27543;SDS011;17996;51.056;3.656;2022-11-11T07:14:57;30.08;;;22.25;;
27543;SDS011;17996;51.056;3.656;2022-11-11T07:17:22;34.08;;;21.92;;
27543;SDS011;17996;51.056;3.656;2022-11-11T07:19:48;39.22;;;24.08;;
27543;SDS011;17996;51.056;3.656;2022-11-11T07:22:14;32.65;;;22.50;;
27543;SDS011;17996;51.056;3.656;2022-11-11T07:24:39;36.13;;;23.35;;
27543;SDS011;17996;51.056;3.656;2022-11-11T07:27:05;33.17;;;21.88;;
27543;SDS011;17996;51.056;3.656;2022-11-11T07:29:30;28.92;;;20.17;;
27543;SDS011;17996;51.056;3.656;2022-11-11T07:31:56;26.05;;;18.77;;
27543;SDS011;17996;51.056;3.656;2022-11-11T07:34:22;28.85;;;17.90;;
27543;SDS011;17996;51.056;3.656;2022-11-11T07:36:47;31.30;;;16.98;;
27543;SDS011;17996;51.056;3.656;2022-11-11T07:39:13;27.83;;;16.38;;
27543;SDS011;17996;51.056;3.656;2022-11-11T07:41:39;27.35;;;16.92;;
27543;SDS011;17996;51.056;3.656;2022-11-11T07:44:04;24.55;;;16.48;;
27543;SDS011;17996;51.056;3.656;2022-11-11T07:46:30;20.55;;;15.38;;
27543;SDS011;17996;51.056;3.656;2022-11-11T07:48:55;27.75;;;15.60;;
27543;SDS011;17996;51.056;3.656;2022-11-11T07:51:21;24.88;;;16.67;;
27543;SDS011;17996;51.056;3.656;2022-11-11T07:53:47;22.13;;;15.02;;
27543;SDS011;17996;51.056;3.656;2022-11-11T07:56:12;21.90;;;15.32;;
27543;SDS011;17996;51.056;3.656;2022-11-11T07:58:38;20.45;;;13.80;;
27543;SDS011;17996;51.056;3.656;2022-11-11T08:01:04;22.58;;;13.50;;
27543;SDS011;17996;51.056;3.656;2022-11-11T08:03:30;19.42;;;14.63;;
27543;SDS011;17996;51.056;3.656;2022-11-11T08:05:56;21.20;;;14.27;;
27543;SDS011;17996;51.056;3.656;2022-11-11T08:08:21;35.65;;;21.35;;
27543;SDS011;17996;51.056;3.656;2022-11-11T08:10:53;38.60;;;23.60;;
27543;SDS011;17996;51.056;3.656;2022-11-11T08:13:20;32.38;;;24.10;;
27543;SDS011;17996;51.056;3.656;2022-11-11T08:16:04;34.10;;;22.00;;
27543;SDS011;17996;51.056;3.656;2022-11-11T08:18:33;25.20;;;20.42;;
27543;SDS011;17996;51.056;3.656;2022-11-11T08:20:59;29.08;;;17.88;;
27543;SDS011;17996;51.056;3.656;2022-11-11T08:23:26;27.75;;;18.92;;
27543;SDS011;17996;51.056;3.656;2022-11-11T08:26:01;28.05;;;20.60;;
27543;SDS011;17996;51.056;3.656;2022-11-11T08:28:31;32.67;;;20.70;;
27543;SDS011;17996;51.056;3.656;2022-11-11T08:30:57;32.80;;;23.67;;
27543;SDS011;17996;51.056;3.656;2022-11-11T08:33:24;39.72;;;26.60;;
27543;SDS011;17996;51.056;3.656;2022-11-11T08:35:51;38.67;;;26.45;;
27543;SDS011;17996;51.056;3.656;2022-11-11T08:38:20;38.25;;;25.70;;
27543;SDS011;17996;51.056;3.656;2022-11-11T08:40:47;39.78;;;26.63;;
27543;SDS011;17996;51.056;3.656;2022-11-11T08:43:13;34.05;;;23.95;;
27543;SDS011;17996;51.056;3.656;2022-11-11T08:45:39;35.38;;;25.88;;
27543;SDS011;17996;51.056;3.656;2022-11-11T08:48:06;35.05;;;26.95;;
27543;SDS011;17996;51.056;3.656;2022-11-11T08:50:35;50.00;;;28.45;;
27543;SDS011;17996;51.056;3.656;2022-11-11T08:53:02;40.28;;;27.83;;
27543;SDS011;17996;51.056;3.656;2022-11-11T08:55:28;37.30;;;28.70;;
27543;SDS011;17996;51.056;3.656;2022-11-11T08:57:57;40.42;;;27.98;;
27543;SDS011;17996;51.056;3.656;2022-11-11T09:00:24;43.20;;;27.92;;
27543;SDS011;17996;51.056;3.656;2022-11-11T09:02:50;38.85;;;28.60;;
27543;SDS011;17996;51.056;3.656;2022-11-11T09:05:16;40.85;;;29.65;;
27543;SDS011;17996;51.056;3.656;2022-11-11T09:07:42;41.67;;;29.00;;
27543;SDS011;17996;51.056;3.656;2022-11-11T09:10:08;36.20;;;26.98;;
27543;SDS011;17996;51.056;3.656;2022-11-11T09:12:34;44.85;;;28.27;;
27543;SDS011;17996;51.056;3.656;2022-11-11T09:14:59;42.08;;;30.48;;
27543;SDS011;17996;51.056;3.656;2022-11-11T09:17:25;38.22;;;29.00;;
27543;SDS011;17996;51.056;3.656;2022-11-11T09:19:51;42.80;;;28.42;;
27543;SDS011;17996;51.056;3.656;2022-11-11T09:22:17;43.20;;;28.48;;
27543;SDS011;17996;51.056;3.656;2022-11-11T09:24:43;41.13;;;27.00;;
27543;SDS011;17996;51.056;3.656;2022-11-11T09:27:09;34.67;;;27.23;;
27543;SDS011;17996;51.056;3.656;2022-11-11T09:29:35;33.72;;;25.42;;
27543;SDS011;17996;51.056;3.656;2022-11-11T09:32:01;31.15;;;23.58;;
27543;SDS011;17996;51.056;3.656;2022-11-11T09:34:28;30.70;;;22.83;;
27543;SDS011;17996;51.056;3.656;2022-11-11T09:36:54;38.13;;;23.95;;
27543;SDS011;17996;51.056;3.656;2022-11-11T09:39:20;31.20;;;22.98;;
27543;SDS011;17996;51.056;3.656;2022-11-11T09:47:12;32.75;;;24.05;;
27543;SDS011;17996;51.056;3.656;2022-11-11T09:52:32;30.95;;;25.05;;
27543;SDS011;17996;51.056;3.656;2022-11-11T09:55:02;32.60;;;23.23;;
27543;SDS011;17996;51.056;3.656;2022-11-11T09:57:37;39.38;;;24.50;;
27543;SDS011;17996;51.056;3.656;2022-11-11T10:00:17;30.75;;;22.08;;
27543;SDS011;17996;51.056;3.656;2022-11-11T10:05:44;26.95;;;21.52;;
27543;SDS011;17996;51.056;3.656;2022-11-11T10:13:31;29.92;;;23.33;;
27543;SDS011;17996;51.056;3.656;2022-11-11T10:21:31;32.08;;;24.58;;
27543;SDS011;17996;51.056;3.656;2022-11-11T10:24:17;32.13;;;25.80;;
27543;SDS011;17996;51.056;3.656;2022-11-11T10:26:52;35.58;;;24.92;;
27543;SDS011;17996;51.056;3.656;2022-11-11T10:29:18;36.97;;;26.17;;
27543;SDS011;17996;51.056;3.656;2022-11-11T10:31:47;26.45;;;20.33;;
27543;SDS011;17996;51.056;3.656;2022-11-11T10:34:35;27.17;;;18.85;;
27543;SDS011;17996;51.056;3.656;2022-11-11T10:37:01;27.00;;;19.35;;
27543;SDS011;17996;51.056;3.656;2022-11-11T10:42:16;28.02;;;19.63;;
27543;SDS011;17996;51.056;3.656;2022-11-11T10:44:42;26.50;;;19.00;;
27543;SDS011;17996;51.056;3.656;2022-11-11T10:47:14;25.33;;;18.67;;
27543;SDS011;17996;51.056;3.656;2022-11-11T10:52:49;30.88;;;18.08;;
27543;SDS011;17996;51.056;3.656;2022-11-11T11:00:52;26.15;;;16.98;;
27543;SDS011;17996;51.056;3.656;2022-11-11T11:03:21;24.67;;;17.73;;
27543;SDS011;17996;51.056;3.656;2022-11-11T11:06:09;21.88;;;16.95;;
27543;SDS011;17996;51.056;3.656;2022-11-11T11:09:07;23.50;;;15.57;;
27543;SDS011;17996;51.056;3.656;2022-11-11T11:11:43;20.75;;;15.07;;
27543;SDS011;17996;51.056;3.656;2022-11-11T11:14:30;23.65;;;15.48;;
27543;SDS011;17996;51.056;3.656;2022-11-11T11:17:03;21.00;;;16.10;;
27543;SDS011;17996;51.056;3.656;2022-11-11T11:19:37;20.73;;;15.10;;
27543;SDS011;17996;51.056;3.656;2022-11-11T11:22:03;20.35;;;14.55;;
27543;SDS011;17996;51.056;3.656;2022-11-11T11:24:30;21.83;;;14.82;;
27543;SDS011;17996;51.056;3.656;2022-11-11T11:27:03;17.98;;;13.15;;
27543;SDS011;17996;51.056;3.656;2022-11-11T11:29:36;23.13;;;13.70;;
27543;SDS011;17996;51.056;3.656;2022-11-11T11:37:14;22.45;;;12.50;;
27543;SDS011;17996;51.056;3.656;2022-11-11T11:39:40;17.45;;;12.65;;
27543;SDS011;17996;51.056;3.656;2022-11-11T11:42:07;16.50;;;11.60;;
27543;SDS011;17996;51.056;3.656;2022-11-11T11:44:37;20.25;;;11.35;;
27543;SDS011;17996;51.056;3.656;2022-11-11T11:55:41;16.10;;;9.38;;
27543;SDS011;17996;51.056;3.656;2022-11-11T12:20:36;15.02;;;8.05;;
27543;SDS011;17996;51.056;3.656;2022-11-11T12:23:12;10.68;;;6.45;;
27543;SDS011;17996;51.056;3.656;2022-11-11T12:34:01;16.75;;;5.80;;
27543;SDS011;17996;51.056;3.656;2022-11-11T12:36:34;8.52;;;6.20;;
27543;SDS011;17996;51.056;3.656;2022-11-11T12:44:40;11.35;;;6.13;;
27543;SDS011;17996;51.056;3.656;2022-11-11T12:47:21;10.80;;;5.85;;
27543;SDS011;17996;51.056;3.656;2022-11-11T12:52:44;12.25;;;5.88;;
27543;SDS011;17996;51.056;3.656;2022-11-11T12:56:10;12.52;;;5.95;;
27543;SDS011;17996;51.056;3.656;2022-11-11T12:58:47;9.82;;;5.68;;
27543;SDS011;17996;51.056;3.656;2022-11-11T13:01:26;10.43;;;5.78;;
27543;SDS011;17996;51.056;3.656;2022-11-11T13:17:26;11.85;;;5.30;;
27543;SDS011;17996;51.056;3.656;2022-11-11T13:24:46;9.18;;;4.82;;
27543;SDS011;17996;51.056;3.656;2022-11-11T13:27:17;11.00;;;5.45;;
27543;SDS011;17996;51.056;3.656;2022-11-11T13:32:28;15.82;;;5.78;;
27543;SDS011;17996;51.056;3.656;2022-11-11T13:34:59;13.13;;;4.97;;
27543;SDS011;17996;51.056;3.656;2022-11-11T13:37:26;11.07;;;4.90;;
27543;SDS011;17996;51.056;3.656;2022-11-11T13:42:38;11.93;;;5.50;;
27543;SDS011;17996;51.056;3.656;2022-11-11T13:45:05;7.35;;;5.10;;
27543;SDS011;17996;51.056;3.656;2022-11-11T13:47:45;6.70;;;4.93;;
27543;SDS011;17996;51.056;3.656;2022-11-11T13:50:13;8.32;;;4.88;;
27543;SDS011;17996;51.056;3.656;2022-11-11T13:53:03;11.02;;;4.63;;
27543;SDS011;17996;51.056;3.656;2022-11-11T13:55:36;9.68;;;4.20;;
27543;SDS011;17996;51.056;3.656;2022-11-11T13:58:04;10.68;;;4.72;;
27543;SDS011;17996;51.056;3.656;2022-11-11T14:00:33;9.73;;;5.00;;
27543;SDS011;17996;51.056;3.656;2022-11-11T14:03:26;9.38;;;4.70;;
27543;SDS011;17996;51.056;3.656;2022-11-11T14:13:57;8.05;;;4.93;;
27543;SDS011;17996;51.056;3.656;2022-11-11T14:21:45;8.38;;;5.13;;
27543;SDS011;17996;51.056;3.656;2022-11-11T14:26:59;8.20;;;5.50;;
27543;SDS011;17996;51.056;3.656;2022-11-11T14:29:48;8.48;;;4.82;;
27543;SDS011;17996;51.056;3.656;2022-11-11T14:40:10;11.43;;;7.25;;
27543;SDS011;17996;51.056;3.656;2022-11-11T14:47:55;10.43;;;6.00;;
27543;SDS011;17996;51.056;3.656;2022-11-11T14:52:52;16.80;;;6.80;;
27543;SDS011;17996;51.056;3.656;2022-11-11T15:00:41;11.63;;;7.83;;
27543;SDS011;17996;51.056;3.656;2022-11-11T15:05:57;16.85;;;9.77;;
27543;SDS011;17996;51.056;3.656;2022-11-11T15:08:34;14.82;;;7.97;;
27543;SDS011;17996;51.056;3.656;2022-11-11T15:11:22;12.60;;;8.18;;
27543;SDS011;17996;51.056;3.656;2022-11-11T15:20:00;12.80;;;7.60;;
27543;SDS011;17996;51.056;3.656;2022-11-11T15:28:31;10.70;;;7.95;;
27543;SDS011;17996;51.056;3.656;2022-11-11T15:36:56;16.17;;;8.93;;
27543;SDS011;17996;51.056;3.656;2022-11-11T15:39:24;15.88;;;9.15;;
27543;SDS011;17996;51.056;3.656;2022-11-11T15:41:55;13.63;;;8.48;;
27543;SDS011;17996;51.056;3.656;2022-11-11T15:44:22;12.93;;;8.70;;
27543;SDS011;17996;51.056;3.656;2022-11-11T15:46:51;18.30;;;9.85;;
27543;SDS011;17996;51.056;3.656;2022-11-11T15:52:02;18.27;;;10.90;;
27543;SDS011;17996;51.056;3.656;2022-11-11T15:54:31;16.95;;;11.25;;
27543;SDS011;17996;51.056;3.656;2022-11-11T15:56:57;18.70;;;10.93;;
27543;SDS011;17996;51.056;3.656;2022-11-11T15:59:23;17.95;;;12.18;;
27543;SDS011;17996;51.056;3.656;2022-11-11T16:01:55;17.75;;;11.75;;
27543;SDS011;17996;51.056;3.656;2022-11-11T16:04:23;19.50;;;11.82;;
27543;SDS011;17996;51.056;3.656;2022-11-11T16:06:49;20.70;;;11.73;;
27543;SDS011;17996;51.056;3.656;2022-11-11T16:09:20;23.35;;;11.82;;
27543;SDS011;17996;51.056;3.656;2022-11-11T16:11:50;17.85;;;11.32;;
27543;SDS011;17996;51.056;3.656;2022-11-11T16:14:20;19.70;;;11.52;;
27543;SDS011;17996;51.056;3.656;2022-11-11T16:16:54;19.50;;;10.50;;
27543;SDS011;17996;51.056;3.656;2022-11-11T16:19:31;20.45;;;10.90;;
27543;SDS011;17996;51.056;3.656;2022-11-11T16:22:05;16.77;;;11.18;;
27543;SDS011;17996;51.056;3.656;2022-11-11T16:24:40;18.83;;;11.60;;
27543;SDS011;17996;51.056;3.656;2022-11-11T16:27:10;17.75;;;11.95;;
27543;SDS011;17996;51.056;3.656;2022-11-11T16:29:42;20.52;;;11.88;;
27543;SDS011;17996;51.056;3.656;2022-11-11T16:32:53;18.15;;;11.10;;
27543;SDS011;17996;51.056;3.656;2022-11-11T16:34:53;21.05;;;11.07;;
27543;SDS011;17996;51.056;3.656;2022-11-11T16:37:20;16.95;;;11.35;;
27543;SDS011;17996;51.056;3.656;2022-11-11T16:39:46;21.48;;;11.57;;
27543;SDS011;17996;51.056;3.656;2022-11-11T16:44:54;19.50;;;11.93;;
27543;SDS011;17996;51.056;3.656;2022-11-11T16:55:18;21.73;;;11.98;;
27543;SDS011;17996;51.056;3.656;2022-11-11T16:57:45;19.25;;;11.93;;
27543;SDS011;17996;51.056;3.656;2022-11-11T17:00:12;16.48;;;12.52;;
27543;SDS011;17996;51.056;3.656;2022-11-11T17:02:41;23.42;;;12.90;;
27543;SDS011;17996;51.056;3.656;2022-11-11T17:05:07;22.83;;;14.52;;
27543;SDS011;17996;51.056;3.656;2022-11-11T17:07:34;22.73;;;14.55;;
27543;SDS011;17996;51.056;3.656;2022-11-11T17:12:38;25.17;;;14.45;;
27543;SDS011;17996;51.056;3.656;2022-11-11T17:15:05;28.27;;;15.35;;
27543;SDS011;17996;51.056;3.656;2022-11-11T17:17:33;25.13;;;16.03;;
27543;SDS011;17996;51.056;3.656;2022-11-11T17:19:59;31.85;;;19.95;;
27543;SDS011;17996;51.056;3.656;2022-11-11T17:22:27;30.90;;;19.58;;
27543;SDS011;17996;51.056;3.656;2022-11-11T17:24:53;32.60;;;20.10;;
27543;SDS011;17996;51.056;3.656;2022-11-11T17:27:18;29.95;;;18.80;;
27543;SDS011;17996;51.056;3.656;2022-11-11T17:29:44;33.63;;;20.17;;
27543;SDS011;17996;51.056;3.656;2022-11-11T17:32:10;39.28;;;23.52;;
27543;SDS011;17996;51.056;3.656;2022-11-11T17:34:36;54.67;;;32.38;;
27543;SDS011;17996;51.056;3.656;2022-11-11T17:37:01;56.97;;;35.53;;
27543;SDS011;17996;51.056;3.656;2022-11-11T17:39:27;56.65;;;36.20;;
27543;SDS011;17996;51.056;3.656;2022-11-11T17:41:52;57.70;;;36.40;;
27543;SDS011;17996;51.056;3.656;2022-11-11T17:44:18;48.00;;;30.60;;
27543;SDS011;17996;51.056;3.656;2022-11-11T17:46:44;47.90;;;29.00;;
27543;SDS011;17996;51.056;3.656;2022-11-11T17:49:09;54.53;;;33.38;;
27543;SDS011;17996;51.056;3.656;2022-11-11T17:51:35;61.40;;;35.00;;
27543;SDS011;17996;51.056;3.656;2022-11-11T17:54:00;67.35;;;37.00;;
27543;SDS011;17996;51.056;3.656;2022-11-11T17:56:26;66.15;;;36.20;;
27543;SDS011;17996;51.056;3.656;2022-11-11T17:58:52;53.28;;;32.35;;